sensor_id;sensor_type;location;lat;lon;timestamp;pressure;altitude;pressure_sealevel;temperature;humidity
14790;BME280;7486;51.010;10.366;2024-02-21T00:01:58;98931.03;;;4.16;76.54
14790;BME280;7486;51.010;10.366;2024-02-21T00:04:44;98931.38;;;4.04;76.82
14790;BME280;7486;51.010;10.366;2024-02-21T00:07:29;98934.38;;;4.09;77.06
14790;BME280;7486;51.010;10.366;2024-02-21T00:10:15;98912.09;;;3.95;77.60
14790;BME280;7486;51.010;10.366;2024-02-21T00:13:01;98933.78;;;4.15;77.01
14790;BME280;7486;51.010;10.366;2024-02-21T00:15:47;98897.97;;;4.06;76.37
14790;BME280;7486;51.010;10.366;2024-02-21T00:18:33;98933.28;;;4.29;76.75
14790;BME280;7486;51.010;10.366;2024-02-21T00:21:19;98931.84;;;4.17;76.56
14790;BME280;7486;51.010;10.366;2024-02-21T00:24:04;98921.16;;;4.01;77.24
14790;BME280;7486;51.010;10.366;2024-02-21T00:26:50;98925.38;;;4.11;77.68
14790;BME280;7486;51.010;10.366;2024-02-21T00:29:35;98914.31;;;4.35;75.90
14790;BME280;7486;51.010;10.366;2024-02-21T00:32:21;98914.09;;;4.46;75.33
14790;BME280;7486;51.010;10.366;2024-02-21T00:35:07;98903.16;;;4.33;76.23
14790;BME280;7486;51.010;10.366;2024-02-21T00:37:52;98895.91;;;4.27;75.30
14790;BME280;7486;51.010;10.366;2024-02-21T00:40:38;98869.13;;;4.06;75.81
14790;BME280;7486;51.010;10.366;2024-02-21T00:43:24;98908.94;;;4.37;75.86
14790;BME280;7486;51.010;10.366;2024-02-21T00:46:09;98894.16;;;4.18;76.21
14790;BME280;7486;51.010;10.366;2024-02-21T00:48:55;98913.34;;;4.36;76.58
14790;BME280;7486;51.010;10.366;2024-02-21T00:51:41;98907.00;;;4.21;78.21
14790;BME280;7486;51.010;10.366;2024-02-21T00:54:26;98882.56;;;4.38;76.94
14790;BME280;7486;51.010;10.366;2024-02-21T00:57:21;98876.03;;;4.25;78.30
14790;BME280;7486;51.010;10.366;2024-02-21T01:00:06;98887.63;;;4.22;78.59
14790;BME280;7486;51.010;10.366;2024-02-21T01:02:53;98879.84;;;4.30;78.10
14790;BME280;7486;51.010;10.366;2024-02-21T01:05:38;98859.50;;;4.24;78.25
14790;BME280;7486;51.010;10.366;2024-02-21T01:08:24;98882.09;;;4.25;78.86
14790;BME280;7486;51.010;10.366;2024-02-21T01:11:46;98882.47;;;4.12;79.34
14790;BME280;7486;51.010;10.366;2024-02-21T01:14:31;98884.94;;;4.32;78.90
14790;BME280;7486;51.010;10.366;2024-02-21T01:17:17;98887.19;;;4.44;78.38
14790;BME280;7486;51.010;10.366;2024-02-21T01:20:03;98892.50;;;4.52;77.99
14790;BME280;7486;51.010;10.366;2024-02-21T01:22:48;98885.47;;;4.35;78.54
14790;BME280;7486;51.010;10.366;2024-02-21T01:25:34;98875.50;;;4.39;77.56
14790;BME280;7486;51.010;10.366;2024-02-21T01:28:19;98866.34;;;4.25;78.51
14790;BME280;7486;51.010;10.366;2024-02-21T01:31:07;98875.72;;;4.45;78.23
14790;BME280;7486;51.010;10.366;2024-02-21T01:33:53;98875.06;;;4.26;78.47
14790;BME280;7486;51.010;10.366;2024-02-21T01:36:38;98876.50;;;4.20;78.65
14790;BME280;7486;51.010;10.366;2024-02-21T01:39:24;98888.59;;;4.39;78.48
14790;BME280;7486;51.010;10.366;2024-02-21T01:42:09;98889.44;;;4.39;78.04
14790;BME280;7486;51.010;10.366;2024-02-21T01:44:55;98892.44;;;4.27;79.13
14790;BME280;7486;51.010;10.366;2024-02-21T01:47:40;98868.91;;;4.17;78.96
14790;BME280;7486;51.010;10.366;2024-02-21T01:50:26;98890.44;;;4.21;79.35
14790;BME280;7486;51.010;10.366;2024-02-21T01:53:13;98894.16;;;4.18;78.81
14790;BME280;7486;51.010;10.366;2024-02-21T01:56:02;98862.44;;;3.94;80.45
14790;BME280;7486;51.010;10.366;2024-02-21T01:58:48;98885.47;;;4.18;79.60
14790;BME280;7486;51.010;10.366;2024-02-21T02:01:34;98888.91;;;4.18;79.92
14790;BME280;7486;51.010;10.366;2024-02-21T02:04:20;98891.19;;;4.31;80.07
14790;BME280;7486;51.010;10.366;2024-02-21T02:07:06;98882.56;;;4.38;79.25
14790;BME280;7486;51.010;10.366;2024-02-21T02:09:52;98869.59;;;4.37;78.79
14790;BME280;7486;51.010;10.366;2024-02-21T02:12:38;98873.88;;;4.55;78.67
14790;BME280;7486;51.010;10.366;2024-02-21T02:15:23;98865.53;;;4.42;78.80
14790;BME280;7486;51.010;10.366;2024-02-21T02:18:09;98875.28;;;4.50;79.06
14790;BME280;7486;51.010;10.366;2024-02-21T02:20:55;98857.00;;;4.23;78.82
14790;BME280;7486;51.010;10.366;2024-02-21T02:23:42;98858.72;;;4.32;78.87
14790;BME280;7486;51.010;10.366;2024-02-21T02:26:27;98859.19;;;4.27;79.60
14790;BME280;7486;51.010;10.366;2024-02-21T02:29:13;98858.69;;;4.49;79.12
14790;BME280;7486;51.010;10.366;2024-02-21T02:31:58;98848.22;;;4.49;78.56
14790;BME280;7486;51.010;10.366;2024-02-21T02:34:44;98845.22;;;4.44;78.60
14790;BME280;7486;51.010;10.366;2024-02-21T02:37:29;98847.84;;;4.44;79.13
14790;BME280;7486;51.010;10.366;2024-02-21T02:40:15;98819.66;;;4.46;78.04
14790;BME280;7486;51.010;10.366;2024-02-21T02:43:01;98788.91;;;4.31;78.17
14790;BME280;7486;51.010;10.366;2024-02-21T02:45:46;98815.69;;;4.42;78.83
14790;BME280;7486;51.010;10.366;2024-02-21T02:48:32;98823.81;;;4.31;79.43
14790;BME280;7486;51.010;10.366;2024-02-21T02:51:17;98800.22;;;4.31;78.89
14790;BME280;7486;51.010;10.366;2024-02-21T02:54:03;98805.09;;;4.26;79.60
14790;BME280;7486;51.010;10.366;2024-02-21T02:56:49;98807.09;;;4.32;79.42
14790;BME280;7486;51.010;10.366;2024-02-21T02:59:35;98796.03;;;4.21;79.68
14790;BME280;7486;51.010;10.366;2024-02-21T03:02:20;98794.19;;;4.39;79.66
14790;BME280;7486;51.010;10.366;2024-02-21T03:05:19;98803.38;;;4.35;79.52
14790;BME280;7486;51.010;10.366;2024-02-21T03:08:05;98804.09;;;4.45;79.44
14790;BME280;7486;51.010;10.366;2024-02-21T03:10:51;98802.66;;;4.50;78.89
14790;BME280;7486;51.010;10.366;2024-02-21T03:13:37;98788.56;;;4.51;78.50
14790;BME280;7486;51.010;10.366;2024-02-21T03:16:22;98755.03;;;4.37;79.38
14790;BME280;7486;51.010;10.366;2024-02-21T03:19:08;98759.22;;;4.30;78.97
14790;BME280;7486;51.010;10.366;2024-02-21T03:21:54;98765.09;;;4.24;80.30
14790;BME280;7486;51.010;10.366;2024-02-21T03:24:39;98767.50;;;4.18;80.43
14790;BME280;7486;51.010;10.366;2024-02-21T03:27:25;98744.41;;;4.21;80.24
14790;BME280;7486;51.010;10.366;2024-02-21T03:30:10;98721.38;;;4.07;80.12
14790;BME280;7486;51.010;10.366;2024-02-21T03:32:56;98758.09;;;4.33;79.86
14790;BME280;7486;51.010;10.366;2024-02-21T03:35:42;98742.66;;;4.04;80.46
14790;BME280;7486;51.010;10.366;2024-02-21T03:38:29;98731.69;;;4.08;80.61
14790;BME280;7486;51.010;10.366;2024-02-21T03:41:14;98736.38;;;4.23;80.39
14790;BME280;7486;51.010;10.366;2024-02-21T03:44:00;98717.31;;;4.12;79.69
14790;BME280;7486;51.010;10.366;2024-02-21T03:46:45;98738.25;;;4.30;78.85
14790;BME280;7486;51.010;10.366;2024-02-21T03:49:31;98731.44;;;4.20;79.85
14790;BME280;7486;51.010;10.366;2024-02-21T03:52:16;98741.63;;;4.23;79.96
14790;BME280;7486;51.010;10.366;2024-02-21T03:55:01;98733.56;;;3.98;80.56
14790;BME280;7486;51.010;10.366;2024-02-21T03:57:47;98715.63;;;3.86;80.67
14790;BME280;7486;51.010;10.366;2024-02-21T04:00:32;98702.97;;;3.81;81.48
14790;BME280;7486;51.010;10.366;2024-02-21T04:03:17;98708.13;;;3.91;81.23
14790;BME280;7486;51.010;10.366;2024-02-21T04:06:03;98733.88;;;4.13;80.96
14790;BME280;7486;51.010;10.366;2024-02-21T04:08:49;98731.16;;;4.05;81.12
14790;BME280;7486;51.010;10.366;2024-02-21T04:11:34;98722.94;;;4.18;80.33
14790;BME280;7486;51.010;10.366;2024-02-21T04:14:20;98740.50;;;4.25;80.38
14790;BME280;7486;51.010;10.366;2024-02-21T04:17:05;98744.91;;;4.25;79.77
14790;BME280;7486;51.010;10.366;2024-02-21T04:20:02;98748.75;;;4.30;80.14
14790;BME280;7486;51.010;10.366;2024-02-21T04:22:47;98744.41;;;4.21;80.18
14790;BME280;7486;51.010;10.366;2024-02-21T04:25:33;98734.13;;;4.28;80.37
14790;BME280;7486;51.010;10.366;2024-02-21T04:28:19;98728.00;;;4.19;79.77
14790;BME280;7486;51.010;10.366;2024-02-21T04:31:04;98747.97;;;4.38;80.38
14790;BME280;7486;51.010;10.366;2024-02-21T04:33:50;98752.81;;;4.50;79.68
14790;BME280;7486;51.010;10.366;2024-02-21T04:36:35;98750.50;;;4.47;79.56
14790;BME280;7486;51.010;10.366;2024-02-21T04:39:21;98751.28;;;4.65;78.39
14790;BME280;7486;51.010;10.366;2024-02-21T04:42:07;98727.75;;;4.56;78.99
14790;BME280;7486;51.010;10.366;2024-02-21T04:44:52;98731.38;;;4.55;79.79
14790;BME280;7486;51.010;10.366;2024-02-21T04:47:38;98722.34;;;4.57;79.12
14790;BME280;7486;51.010;10.366;2024-02-21T04:50:24;98724.03;;;4.66;78.62
14790;BME280;7486;51.010;10.366;2024-02-21T04:53:10;98723.41;;;4.73;78.27
14790;BME280;7486;51.010;10.366;2024-02-21T04:55:55;98715.56;;;4.81;77.96
14790;BME280;7486;51.010;10.366;2024-02-21T04:58:41;98723.72;;;4.69;78.35
14790;BME280;7486;51.010;10.366;2024-02-21T05:01:28;98714.47;;;4.57;79.33
14790;BME280;7486;51.010;10.366;2024-02-21T05:04:13;98682.94;;;4.41;79.26
14790;BME280;7486;51.010;10.366;2024-02-21T05:07:00;98705.13;;;4.55;79.41
14790;BME280;7486;51.010;10.366;2024-02-21T05:09:45;98706.88;;;4.46;79.89
14790;BME280;7486;51.010;10.366;2024-02-21T05:12:31;98709.16;;;4.41;79.81
14790;BME280;7486;51.010;10.366;2024-02-21T05:15:17;98698.22;;;4.28;81.24
14790;BME280;7486;51.010;10.366;2024-02-21T05:18:02;98682.72;;;4.09;81.56
14790;BME280;7486;51.010;10.366;2024-02-21T05:20:48;98684.38;;;4.10;82.31
14790;BME280;7486;51.010;10.366;2024-02-21T05:23:34;98659.31;;;3.90;82.48
14790;BME280;7486;51.010;10.366;2024-02-21T05:26:23;98676.44;;;4.02;83.09
14790;BME280;7486;51.010;10.366;2024-02-21T05:29:09;98678.09;;;4.03;83.08
14790;BME280;7486;51.010;10.366;2024-02-21T05:31:56;98676.94;;;3.80;84.12
14790;BME280;7486;51.010;10.366;2024-02-21T05:34:42;98650.84;;;3.96;83.55
14790;BME280;7486;51.010;10.366;2024-02-21T05:37:28;98643.63;;;3.98;83.33
14790;BME280;7486;51.010;10.366;2024-02-21T05:40:13;98652.75;;;3.86;83.80
14790;BME280;7486;51.010;10.366;2024-02-21T05:42:59;98649.41;;;4.27;82.99
14790;BME280;7486;51.010;10.366;2024-02-21T05:45:45;98665.75;;;4.21;82.22
14790;BME280;7486;51.010;10.366;2024-02-21T05:48:30;98660.28;;;4.14;82.65
14790;BME280;7486;51.010;10.366;2024-02-21T05:51:20;98651.81;;;4.21;82.82
14790;BME280;7486;51.010;10.366;2024-02-21T05:54:06;98653.38;;;4.31;81.32
14790;BME280;7486;51.010;10.366;2024-02-21T05:56:52;98661.50;;;4.20;82.25
14790;BME280;7486;51.010;10.366;2024-02-21T05:59:38;98662.25;;;4.12;83.08
14790;BME280;7486;51.010;10.366;2024-02-21T06:02:23;98661.13;;;4.15;82.73
14790;BME280;7486;51.010;10.366;2024-02-21T06:05:09;98688.69;;;4.19;82.78
14790;BME280;7486;51.010;10.366;2024-02-21T06:07:55;98692.47;;;3.99;83.71
14790;BME280;7486;51.010;10.366;2024-02-21T06:10:40;98697.28;;;3.86;85.04
14790;BME280;7486;51.010;10.366;2024-02-21T06:13:26;98695.81;;;4.09;84.37
14790;BME280;7486;51.010;10.366;2024-02-21T06:16:12;98698.66;;;4.15;83.47
14790;BME280;7486;51.010;10.366;2024-02-21T06:18:57;98678.41;;;4.00;83.48
14790;BME280;7486;51.010;10.366;2024-02-21T06:21:43;98682.91;;;3.90;83.77
14790;BME280;7486;51.010;10.366;2024-02-21T06:24:28;98696.09;;;4.24;83.78
14790;BME280;7486;51.010;10.366;2024-02-21T06:27:14;98708.16;;;4.16;83.26
14790;BME280;7486;51.010;10.366;2024-02-21T06:29:59;98709.34;;;4.22;83.34
14790;BME280;7486;51.010;10.366;2024-02-21T06:32:44;98707.41;;;4.24;83.28
14790;BME280;7486;51.010;10.366;2024-02-21T06:35:30;98707.75;;;4.03;83.81
14790;BME280;7486;51.010;10.366;2024-02-21T06:38:15;98716.91;;;4.25;83.57
14790;BME280;7486;51.010;10.366;2024-02-21T06:41:02;98704.81;;;4.32;82.81
14790;BME280;7486;51.010;10.366;2024-02-21T06:43:48;98705.31;;;4.36;82.25
14790;BME280;7486;51.010;10.366;2024-02-21T06:46:33;98686.91;;;4.02;83.30
14790;BME280;7486;51.010;10.366;2024-02-21T06:49:19;98704.09;;;4.22;83.99
14790;BME280;7486;51.010;10.366;2024-02-21T06:52:05;98697.06;;;4.23;83.55
14790;BME280;7486;51.010;10.366;2024-02-21T06:54:50;98699.38;;;4.26;83.20
14790;BME280;7486;51.010;10.366;2024-02-21T06:57:35;98686.63;;;4.31;82.94
14790;BME280;7486;51.010;10.366;2024-02-21T07:00:21;98686.06;;;4.19;83.77
14790;BME280;7486;51.010;10.366;2024-02-21T07:03:09;98681.84;;;4.26;82.64
14790;BME280;7486;51.010;10.366;2024-02-21T07:05:55;98682.09;;;4.15;84.04
14790;BME280;7486;51.010;10.366;2024-02-21T07:08:41;98694.84;;;4.10;83.74
14790;BME280;7486;51.010;10.366;2024-02-21T07:11:27;98677.56;;;3.99;84.55
14790;BME280;7486;51.010;10.366;2024-02-21T07:14:14;98697.50;;;4.18;83.83
14790;BME280;7486;51.010;10.366;2024-02-21T07:16:59;98690.44;;;4.10;84.12
14790;BME280;7486;51.010;10.366;2024-02-21T07:19:45;98673.47;;;3.97;84.63
14790;BME280;7486;51.010;10.366;2024-02-21T07:22:30;98684.69;;;4.07;83.97
14790;BME280;7486;51.010;10.366;2024-02-21T07:25:16;98666.91;;;4.01;83.69
14790;BME280;7486;51.010;10.366;2024-02-21T07:28:02;98688.56;;;4.03;83.36
14790;BME280;7486;51.010;10.366;2024-02-21T07:30:47;98693.56;;;4.14;83.51
14790;BME280;7486;51.010;10.366;2024-02-21T07:33:33;98679.13;;;4.10;84.00
14790;BME280;7486;51.010;10.366;2024-02-21T07:36:29;98673.25;;;4.16;83.74
14790;BME280;7486;51.010;10.366;2024-02-21T07:39:15;98654.84;;;4.08;83.84
14790;BME280;7486;51.010;10.366;2024-02-21T07:42:00;98669.59;;;4.09;83.60
14790;BME280;7486;51.010;10.366;2024-02-21T07:44:45;98650.56;;;4.33;82.35
14790;BME280;7486;51.010;10.366;2024-02-21T07:47:31;98643.91;;;4.46;82.00
14790;BME280;7486;51.010;10.366;2024-02-21T07:50:16;98658.53;;;4.83;81.01
14790;BME280;7486;51.010;10.366;2024-02-21T07:53:02;98662.13;;;4.82;80.68
14790;BME280;7486;51.010;10.366;2024-02-21T07:55:48;98653.88;;;4.77;80.15
14790;BME280;7486;51.010;10.366;2024-02-21T07:58:33;98646.38;;;4.90;79.76
14790;BME280;7486;51.010;10.366;2024-02-21T08:01:19;98627.72;;;4.59;80.54
14790;BME280;7486;51.010;10.366;2024-02-21T08:04:05;98662.78;;;4.84;80.10
14790;BME280;7486;51.010;10.366;2024-02-21T08:06:53;98655.09;;;4.90;80.34
14790;BME280;7486;51.010;10.366;2024-02-21T08:09:39;98644.25;;;4.85;79.49
14790;BME280;7486;51.010;10.366;2024-02-21T08:12:26;98644.09;;;4.95;79.25
14790;BME280;7486;51.010;10.366;2024-02-21T08:15:12;98618.75;;;4.61;80.23
14790;BME280;7486;51.010;10.366;2024-02-21T08:17:57;98649.81;;;4.90;80.43
14790;BME280;7486;51.010;10.366;2024-02-21T08:20:43;98637.66;;;4.81;79.69
14790;BME280;7486;51.010;10.366;2024-02-21T08:23:28;98644.44;;;4.50;81.46
14790;BME280;7486;51.010;10.366;2024-02-21T08:26:14;98643.91;;;4.38;82.35
14790;BME280;7486;51.010;10.366;2024-02-21T08:29:00;98642.00;;;4.23;83.21
14790;BME280;7486;51.010;10.366;2024-02-21T08:31:46;98638.09;;;4.27;83.49
14790;BME280;7486;51.010;10.366;2024-02-21T08:34:32;98636.03;;;4.38;82.82
14790;BME280;7486;51.010;10.366;2024-02-21T08:37:17;98639.31;;;4.40;82.64
14790;BME280;7486;51.010;10.366;2024-02-21T08:40:05;98595.56;;;4.15;82.82
14790;BME280;7486;51.010;10.366;2024-02-21T08:42:51;98633.56;;;4.37;83.21
14790;BME280;7486;51.010;10.366;2024-02-21T08:45:37;98627.41;;;4.54;82.62
14790;BME280;7486;51.010;10.366;2024-02-21T08:48:23;98622.75;;;4.40;82.58
14790;BME280;7486;51.010;10.366;2024-02-21T08:51:08;98600.03;;;4.23;83.39
14790;BME280;7486;51.010;10.366;2024-02-21T08:53:53;98610.34;;;4.50;82.52
14790;BME280;7486;51.010;10.366;2024-02-21T08:56:39;98613.91;;;4.41;83.36
14790;BME280;7486;51.010;10.366;2024-02-21T08:59:24;98601.81;;;4.14;84.57
14790;BME280;7486;51.010;10.366;2024-02-21T09:02:10;98602.72;;;4.31;84.44
14790;BME280;7486;51.010;10.366;2024-02-21T09:04:55;98613.03;;;4.32;83.93
14790;BME280;7486;51.010;10.366;2024-02-21T09:07:41;98598.06;;;4.25;84.28
14790;BME280;7486;51.010;10.366;2024-02-21T09:10:26;98579.53;;;4.18;84.65
14790;BME280;7486;51.010;10.366;2024-02-21T09:13:12;98602.28;;;4.43;84.79
14790;BME280;7486;51.010;10.366;2024-02-21T09:15:57;98601.25;;;4.36;84.51
14790;BME280;7486;51.010;10.366;2024-02-21T09:18:44;98598.59;;;4.28;84.73
14790;BME280;7486;51.010;10.366;2024-02-21T09:21:30;98600.03;;;4.23;85.50
14790;BME280;7486;51.010;10.366;2024-02-21T09:24:15;98601.84;;;4.22;85.20
14790;BME280;7486;51.010;10.366;2024-02-21T09:27:01;98596.84;;;4.11;85.82
14790;BME280;7486;51.010;10.366;2024-02-21T09:29:46;98594.56;;;4.08;86.33
14790;BME280;7486;51.010;10.366;2024-02-21T09:32:32;98586.19;;;3.79;87.35
14790;BME280;7486;51.010;10.366;2024-02-21T09:35:18;98577.16;;;3.99;86.60
14790;BME280;7486;51.010;10.366;2024-02-21T09:38:04;98574.00;;;4.29;85.74
14790;BME280;7486;51.010;10.366;2024-02-21T09:40:59;98574.47;;;4.25;84.93
14790;BME280;7486;51.010;10.366;2024-02-21T09:43:45;98543.78;;;4.09;84.05
14790;BME280;7486;51.010;10.366;2024-02-21T09:46:43;98570.56;;;4.29;84.45
14790;BME280;7486;51.010;10.366;2024-02-21T09:49:31;98555.84;;;4.36;84.39
14790;BME280;7486;51.010;10.366;2024-02-21T09:52:18;98556.41;;;4.47;84.44
14790;BME280;7486;51.010;10.366;2024-02-21T09:55:06;98566.94;;;4.55;84.81
14790;BME280;7486;51.010;10.366;2024-02-21T09:57:53;98564.66;;;4.68;83.42
14790;BME280;7486;51.010;10.366;2024-02-21T10:00:38;98559.59;;;4.83;83.04
14790;BME280;7486;51.010;10.366;2024-02-21T10:03:24;98560.81;;;4.47;84.34
14790;BME280;7486;51.010;10.366;2024-02-21T10:06:10;98526.56;;;4.48;83.81
14790;BME280;7486;51.010;10.366;2024-02-21T10:08:55;98554.03;;;4.78;82.78
14790;BME280;7486;51.010;10.366;2024-02-21T10:11:42;98557.63;;;4.93;82.43
14790;BME280;7486;51.010;10.366;2024-02-21T10:14:30;98550.44;;;4.95;82.75
14790;BME280;7486;51.010;10.366;2024-02-21T10:17:17;98548.78;;;4.94;81.19
14790;BME280;7486;51.010;10.366;2024-02-21T10:20:09;98551.09;;;5.05;81.17
14790;BME280;7486;51.010;10.366;2024-02-21T10:23:01;98533.56;;;5.14;78.72
14790;BME280;7486;51.010;10.366;2024-02-21T10:25:49;98542.41;;;5.13;78.93
14790;BME280;7486;51.010;10.366;2024-02-21T10:28:35;98540.97;;;5.35;78.22
14790;BME280;7486;51.010;10.366;2024-02-21T10:31:26;98546.38;;;5.33;76.80
14790;BME280;7486;51.010;10.366;2024-02-21T10:34:16;98547.66;;;5.13;77.78
14790;BME280;7486;51.010;10.366;2024-02-21T10:37:09;98537.03;;;5.14;77.32
14790;BME280;7486;51.010;10.366;2024-02-21T10:39:55;98541.81;;;5.27;76.57
14790;BME280;7486;51.010;10.366;2024-02-21T10:42:40;98530.28;;;5.28;74.79
14790;BME280;7486;51.010;10.366;2024-02-21T10:45:35;98536.84;;;5.56;74.45
14790;BME280;7486;51.010;10.366;2024-02-21T10:48:26;98526.03;;;5.35;73.79
14790;BME280;7486;51.010;10.366;2024-02-21T10:51:16;98517.84;;;5.30;73.77
14790;BME280;7486;51.010;10.366;2024-02-21T10:56:56;98501.38;;;5.52;74.88
14790;BME280;7486;51.010;10.366;2024-02-21T10:59:44;98509.91;;;5.62;71.78
14790;BME280;7486;51.010;10.366;2024-02-21T11:02:30;98501.19;;;5.70;71.86
14790;BME280;7486;51.010;10.366;2024-02-21T11:05:17;98492.81;;;5.75;71.58
14790;BME280;7486;51.010;10.366;2024-02-21T11:08:05;98493.06;;;5.96;71.50
14790;BME280;7486;51.010;10.366;2024-02-21T11:10:56;98491.97;;;6.13;69.60
14790;BME280;7486;51.010;10.366;2024-02-21T11:13:42;98493.09;;;6.27;70.02
14790;BME280;7486;51.010;10.366;2024-02-21T11:16:38;98473.44;;;6.06;68.00
14790;BME280;7486;51.010;10.366;2024-02-21T11:19:28;98470.03;;;5.98;68.97
14790;BME280;7486;51.010;10.366;2024-02-21T11:22:18;98467.47;;;6.20;69.71
14790;BME280;7486;51.010;10.366;2024-02-21T11:25:07;98462.19;;;6.20;68.34
14790;BME280;7486;51.010;10.366;2024-02-21T11:28:03;98454.25;;;6.06;68.40
14790;BME280;7486;51.010;10.366;2024-02-21T11:30:50;98447.63;;;6.10;68.36
14790;BME280;7486;51.010;10.366;2024-02-21T11:33:35;98441.03;;;6.14;68.13
14790;BME280;7486;51.010;10.366;2024-02-21T11:36:28;98443.72;;;6.37;68.52
14790;BME280;7486;51.010;10.366;2024-02-21T11:39:18;98435.53;;;6.54;67.91
14790;BME280;7486;51.010;10.366;2024-02-21T11:42:05;98408.97;;;6.41;67.99
14790;BME280;7486;51.010;10.366;2024-02-21T11:44:51;98423.50;;;6.83;67.21
14790;BME280;7486;51.010;10.366;2024-02-21T11:47:36;98413.38;;;7.09;65.62
14790;BME280;7486;51.010;10.366;2024-02-21T11:50:21;98380.44;;;6.76;66.93
14790;BME280;7486;51.010;10.366;2024-02-21T11:53:07;98372.59;;;6.90;66.10
14790;BME280;7486;51.010;10.366;2024-02-21T11:55:54;98388.44;;;7.05;66.55
14790;BME280;7486;51.010;10.366;2024-02-21T11:58:39;98383.25;;;7.11;66.68
14790;BME280;7486;51.010;10.366;2024-02-21T12:01:24;98379.72;;;7.19;66.29
14790;BME280;7486;51.010;10.366;2024-02-21T12:04:10;98375.50;;;6.81;65.30
14790;BME280;7486;51.010;10.366;2024-02-21T12:06:59;98365.34;;;6.69;65.73
14790;BME280;7486;51.010;10.366;2024-02-21T12:09:45;98354.63;;;6.94;64.84
14790;BME280;7486;51.010;10.366;2024-02-21T12:12:31;98346.66;;;7.02;64.45
14790;BME280;7486;51.010;10.366;2024-02-21T12:15:18;98354.63;;;6.94;65.08
14790;BME280;7486;51.010;10.366;2024-02-21T12:18:04;98332.34;;;6.82;64.75
14790;BME280;7486;51.010;10.366;2024-02-21T12:20:49;98329.41;;;7.14;63.24
14790;BME280;7486;51.010;10.366;2024-02-21T12:23:35;98337.91;;;7.16;64.66
14790;BME280;7486;51.010;10.366;2024-02-21T12:26:21;98319.94;;;7.34;63.66
14790;BME280;7486;51.010;10.366;2024-02-21T12:29:07;98325.41;;;7.33;62.67
14790;BME280;7486;51.010;10.366;2024-02-21T12:31:53;98319.56;;;7.23;63.26
14790;BME280;7486;51.010;10.366;2024-02-21T12:34:38;98315.94;;;7.53;63.50
14790;BME280;7486;51.010;10.366;2024-02-21T12:37:38;98296.59;;;7.46;61.90
14790;BME280;7486;51.010;10.366;2024-02-21T12:40:25;98280.78;;;7.31;63.01
14790;BME280;7486;51.010;10.366;2024-02-21T12:43:10;98273.25;;;7.28;63.97
14790;BME280;7486;51.010;10.366;2024-02-21T12:46:14;98285.00;;;7.61;63.14
14790;BME280;7486;51.010;10.366;2024-02-21T12:49:00;98276.06;;;7.41;61.51
14790;BME280;7486;51.010;10.366;2024-02-21T12:51:46;98269.66;;;7.50;63.21
14790;BME280;7486;51.010;10.366;2024-02-21T12:54:32;98273.22;;;7.79;61.81
14790;BME280;7486;51.010;10.366;2024-02-21T12:57:17;98270.66;;;8.06;61.72
14790;BME280;7486;51.010;10.366;2024-02-21T13:00:03;98273.22;;;8.14;60.54
14790;BME280;7486;51.010;10.366;2024-02-21T13:02:49;98272.47;;;7.85;60.69
14790;BME280;7486;51.010;10.366;2024-02-21T13:05:34;98253.00;;;7.64;59.57
14790;BME280;7486;51.010;10.366;2024-02-21T13:08:20;98255.38;;;7.59;60.41
14790;BME280;7486;51.010;10.366;2024-02-21T13:11:05;98254.63;;;7.65;60.89
14790;BME280;7486;51.010;10.366;2024-02-21T13:13:52;98262.50;;;7.80;61.04
14790;BME280;7486;51.010;10.366;2024-02-21T13:16:37;98200.81;;;7.39;60.53
14790;BME280;7486;51.010;10.366;2024-02-21T13:19:23;98257.56;;;7.56;60.09
14790;BME280;7486;51.010;10.366;2024-02-21T13:22:09;98262.63;;;7.72;60.21
14790;BME280;7486;51.010;10.366;2024-02-21T13:24:54;98253.03;;;7.86;59.36
14790;BME280;7486;51.010;10.366;2024-02-21T13:27:42;98235.75;;;7.62;59.73
14790;BME280;7486;51.010;10.366;2024-02-21T13:30:29;98226.59;;;7.79;59.61
14790;BME280;7486;51.010;10.366;2024-02-21T13:33:15;98240.41;;;7.60;60.37
14790;BME280;7486;51.010;10.366;2024-02-21T13:36:01;98179.91;;;7.37;60.39
14790;BME280;7486;51.010;10.366;2024-02-21T13:38:48;98228.50;;;7.70;61.08
14790;BME280;7486;51.010;10.366;2024-02-21T13:41:33;98227.03;;;7.47;59.03
14790;BME280;7486;51.010;10.366;2024-02-21T13:44:19;98217.25;;;7.41;59.75
14790;BME280;7486;51.010;10.366;2024-02-21T13:47:04;98226.59;;;7.43;59.64
14790;BME280;7486;51.010;10.366;2024-02-21T13:49:50;98212.19;;;7.60;60.14
14790;BME280;7486;51.010;10.366;2024-02-21T13:52:36;98185.31;;;7.29;59.95
14790;BME280;7486;51.010;10.366;2024-02-21T13:55:22;98141.00;;;7.18;59.43
14790;BME280;7486;51.010;10.366;2024-02-21T13:58:09;98183.56;;;7.36;60.46
14790;BME280;7486;51.010;10.366;2024-02-21T14:00:54;98192.78;;;7.26;60.25
14790;BME280;7486;51.010;10.366;2024-02-21T14:03:39;98181.03;;;7.28;60.23
14790;BME280;7486;51.010;10.366;2024-02-21T14:06:25;98180.75;;;7.59;61.24
14790;BME280;7486;51.010;10.366;2024-02-21T14:09:10;98173.16;;;7.70;59.98
14790;BME280;7486;51.010;10.366;2024-02-21T14:11:56;98140.84;;;7.62;59.39
14790;BME280;7486;51.010;10.366;2024-02-21T14:14:43;98149.44;;;7.70;59.49
14790;BME280;7486;51.010;10.366;2024-02-21T14:17:29;98142.66;;;7.40;60.33
14790;BME280;7486;51.010;10.366;2024-02-21T14:20:15;98133.41;;;7.30;59.67
14790;BME280;7486;51.010;10.366;2024-02-21T14:23:02;98130.25;;;7.55;59.74
14790;BME280;7486;51.010;10.366;2024-02-21T14:25:49;98083.56;;;7.28;59.55
14790;BME280;7486;51.010;10.366;2024-02-21T14:28:34;98143.31;;;7.63;59.33
14790;BME280;7486;51.010;10.366;2024-02-21T14:31:20;98136.13;;;7.57;60.02
14790;BME280;7486;51.010;10.366;2024-02-21T14:34:06;98127.56;;;7.49;60.27
14790;BME280;7486;51.010;10.366;2024-02-21T14:36:51;98122.72;;;7.52;60.56
14790;BME280;7486;51.010;10.366;2024-02-21T14:39:37;98110.97;;;7.76;60.55
14790;BME280;7486;51.010;10.366;2024-02-21T14:42:22;98100.38;;;7.69;59.08
14790;BME280;7486;51.010;10.366;2024-02-21T14:45:11;98109.09;;;7.70;58.55
14790;BME280;7486;51.010;10.366;2024-02-21T14:47:57;98110.03;;;7.62;58.61
14790;BME280;7486;51.010;10.366;2024-02-21T14:50:42;98093.22;;;7.63;59.20
14790;BME280;7486;51.010;10.366;2024-02-21T14:53:29;98085.94;;;7.65;58.55
14790;BME280;7486;51.010;10.366;2024-02-21T14:56:15;98059.50;;;7.59;58.74